sensor_id;sensor_type;location;lat;lon;timestamp;P1;durP1;ratioP1;P2;durP2;ratioP2
44824;SDS011;30542;47.928;2.138;2022-10-16T00:02:47;0.50;;;0.20;;
44824;SDS011;30542;47.928;2.138;2022-10-16T00:07:48;0.50;;;0.20;;
44824;SDS011;30542;47.928;2.138;2022-10-16T00:12:48;0.98;;;0.40;;
44824;SDS011;30542;47.928;2.138;2022-10-16T00:17:49;0.82;;;0.30;;
44824;SDS011;30542;47.928;2.138;2022-10-16T00:22:49;1.40;;;0.40;;
44824;SDS011;30542;47.928;2.138;2022-10-16T00:27:49;1.10;;;0.40;;
44824;SDS011;30542;47.928;2.138;2022-10-16T00:32:50;1.33;;;0.30;;
44824;SDS011;30542;47.928;2.138;2022-10-16T00:37:50;0.70;;;0.30;;
44824;SDS011;30542;47.928;2.138;2022-10-16T00:42:51;0.80;;;0.30;;
44824;SDS011;30542;47.928;2.138;2022-10-16T00:47:51;0.83;;;0.30;;
44824;SDS011;30542;47.928;2.138;2022-10-16T00:52:54;0.40;;;0.30;;
44824;SDS011;30542;47.928;2.138;2022-10-16T00:57:56;0.52;;;0.20;;
44824;SDS011;30542;47.928;2.138;2022-10-16T01:02:59;0.73;;;0.30;;
44824;SDS011;30542;47.928;2.138;2022-10-16T01:08:04;0.50;;;0.30;;
44824;SDS011;30542;47.928;2.138;2022-10-16T01:18:43;0.60;;;0.30;;
44824;SDS011;30542;47.928;2.138;2022-10-16T01:34:37;0.82;;;0.20;;
44824;SDS011;30542;47.928;2.138;2022-10-16T01:39:42;0.63;;;0.30;;
44824;SDS011;30542;47.928;2.138;2022-10-16T01:44:47;0.65;;;0.20;;
44824;SDS011;30542;47.928;2.138;2022-10-16T01:49:49;0.32;;;0.20;;
44824;SDS011;30542;47.928;2.138;2022-10-16T01:54:53;0.73;;;0.20;;
44824;SDS011;30542;47.928;2.138;2022-10-16T01:59:58;1.58;;;0.20;;
44824;SDS011;30542;47.928;2.138;2022-10-16T02:05:09;0.95;;;0.20;;
44824;SDS011;30542;47.928;2.138;2022-10-16T02:10:16;0.30;;;0.10;;
44824;SDS011;30542;47.928;2.138;2022-10-16T02:15:16;0.95;;;0.17;;
44824;SDS011;30542;47.928;2.138;2022-10-16T02:20:18;0.70;;;0.30;;
44824;SDS011;30542;47.928;2.138;2022-10-16T02:25:27;1.13;;;0.20;;
44824;SDS011;30542;47.928;2.138;2022-10-16T02:35:38;0.30;;;0.20;;
44824;SDS011;30542;47.928;2.138;2022-10-16T02:40:40;0.35;;;0.20;;
44824;SDS011;30542;47.928;2.138;2022-10-16T02:45:40;0.52;;;0.20;;
44824;SDS011;30542;47.928;2.138;2022-10-16T02:50:41;0.47;;;0.20;;
44824;SDS011;30542;47.928;2.138;2022-10-16T02:55:41;0.20;;;0.20;;
44824;SDS011;30542;47.928;2.138;2022-10-16T03:00:42;0.50;;;0.20;;
44824;SDS011;30542;47.928;2.138;2022-10-16T03:05:43;0.20;;;0.10;;
44824;SDS011;30542;47.928;2.138;2022-10-16T03:10:45;0.40;;;0.10;;
44824;SDS011;30542;47.928;2.138;2022-10-16T03:15:46;0.85;;;0.20;;
44824;SDS011;30542;47.928;2.138;2022-10-16T03:20:47;0.43;;;0.10;;
44824;SDS011;30542;47.928;2.138;2022-10-16T03:25:47;0.20;;;0.10;;
44824;SDS011;30542;47.928;2.138;2022-10-16T03:30:47;0.50;;;0.20;;
44824;SDS011;30542;47.928;2.138;2022-10-16T03:35:52;1.17;;;0.20;;
44824;SDS011;30542;47.928;2.138;2022-10-16T03:40:53;0.38;;;0.17;;
44824;SDS011;30542;47.928;2.138;2022-10-16T03:45:53;0.67;;;0.20;;
44824;SDS011;30542;47.928;2.138;2022-10-16T03:50:54;1.20;;;0.17;;
44824;SDS011;30542;47.928;2.138;2022-10-16T03:55:54;0.38;;;0.10;;
44824;SDS011;30542;47.928;2.138;2022-10-16T04:00:55;0.30;;;0.10;;
44824;SDS011;30542;47.928;2.138;2022-10-16T04:05:55;0.20;;;0.10;;
44824;SDS011;30542;47.928;2.138;2022-10-16T04:10:55;0.77;;;0.37;;
44824;SDS011;30542;47.928;2.138;2022-10-16T04:15:56;0.30;;;0.10;;
44824;SDS011;30542;47.928;2.138;2022-10-16T04:20:56;0.20;;;0.10;;
44824;SDS011;30542;47.928;2.138;2022-10-16T04:25:57;0.38;;;0.20;;
44824;SDS011;30542;47.928;2.138;2022-10-16T04:30:57;0.30;;;0.10;;
44824;SDS011;30542;47.928;2.138;2022-10-16T04:35:58;0.77;;;0.30;;
44824;SDS011;30542;47.928;2.138;2022-10-16T04:41:00;1.02;;;0.13;;
44824;SDS011;30542;47.928;2.138;2022-10-16T04:46:00;0.40;;;0.20;;
44824;SDS011;30542;47.928;2.138;2022-10-16T04:51:01;0.47;;;0.20;;
44824;SDS011;30542;47.928;2.138;2022-10-16T04:56:02;0.60;;;0.13;;
44824;SDS011;30542;47.928;2.138;2022-10-16T05:01:02;0.75;;;0.20;;
44824;SDS011;30542;47.928;2.138;2022-10-16T05:06:04;0.30;;;0.10;;
44824;SDS011;30542;47.928;2.138;2022-10-16T05:11:06;0.98;;;0.20;;
44824;SDS011;30542;47.928;2.138;2022-10-16T05:16:06;0.10;;;0.10;;
44824;SDS011;30542;47.928;2.138;2022-10-16T05:21:07;0.30;;;0.10;;
44824;SDS011;30542;47.928;2.138;2022-10-16T05:26:07;0.37;;;0.20;;
44824;SDS011;30542;47.928;2.138;2022-10-16T05:31:08;0.82;;;0.10;;
44824;SDS011;30542;47.928;2.138;2022-10-16T05:36:09;0.30;;;0.20;;
44824;SDS011;30542;47.928;2.138;2022-10-16T05:41:10;0.20;;;0.10;;
44824;SDS011;30542;47.928;2.138;2022-10-16T05:46:10;0.30;;;0.15;;
44824;SDS011;30542;47.928;2.138;2022-10-16T05:51:11;0.60;;;0.30;;
44824;SDS011;30542;47.928;2.138;2022-10-16T05:56:13;0.30;;;0.20;;
44824;SDS011;30542;47.928;2.138;2022-10-16T06:01:15;0.33;;;0.20;;
44824;SDS011;30542;47.928;2.138;2022-10-16T06:06:18;0.65;;;0.20;;
44824;SDS011;30542;47.928;2.138;2022-10-16T06:11:24;0.82;;;0.17;;
44824;SDS011;30542;47.928;2.138;2022-10-16T06:16:26;0.30;;;0.10;;
44824;SDS011;30542;47.928;2.138;2022-10-16T06:21:27;0.77;;;0.30;;
44824;SDS011;30542;47.928;2.138;2022-10-16T06:26:29;0.38;;;0.10;;
44824;SDS011;30542;47.928;2.138;2022-10-16T06:31:30;0.22;;;0.10;;
44824;SDS011;30542;47.928;2.138;2022-10-16T06:36:33;0.17;;;0.17;;
44824;SDS011;30542;47.928;2.138;2022-10-16T06:41:33;0.63;;;0.30;;
44824;SDS011;30542;47.928;2.138;2022-10-16T06:46:34;0.40;;;0.15;;
44824;SDS011;30542;47.928;2.138;2022-10-16T06:51:34;0.37;;;0.20;;
44824;SDS011;30542;47.928;2.138;2022-10-16T06:56:36;0.22;;;0.20;;
44824;SDS011;30542;47.928;2.138;2022-10-16T07:01:37;0.47;;;0.10;;
44824;SDS011;30542;47.928;2.138;2022-10-16T07:06:38;0.20;;;0.20;;
44824;SDS011;30542;47.928;2.138;2022-10-16T07:11:38;1.27;;;0.10;;
44824;SDS011;30542;47.928;2.138;2022-10-16T07:16:40;0.28;;;0.15;;
44824;SDS011;30542;47.928;2.138;2022-10-16T07:21:40;0.53;;;0.20;;
44824;SDS011;30542;47.928;2.138;2022-10-16T07:26:42;0.65;;;0.10;;
44824;SDS011;30542;47.928;2.138;2022-10-16T07:31:44;0.88;;;0.20;;
44824;SDS011;30542;47.928;2.138;2022-10-16T07:36:47;2.08;;;0.40;;
44824;SDS011;30542;47.928;2.138;2022-10-16T07:41:48;2.05;;;0.40;;
44824;SDS011;30542;47.928;2.138;2022-10-16T07:46:48;0.80;;;0.20;;
44824;SDS011;30542;47.928;2.138;2022-10-16T07:51:49;1.30;;;0.33;;
44824;SDS011;30542;47.928;2.138;2022-10-16T07:56:49;0.83;;;0.20;;
44824;SDS011;30542;47.928;2.138;2022-10-16T08:01:49;1.80;;;0.40;;
44824;SDS011;30542;47.928;2.138;2022-10-16T08:06:50;2.40;;;0.40;;
44824;SDS011;30542;47.928;2.138;2022-10-16T08:11:50;1.20;;;0.50;;
44824;SDS011;30542;47.928;2.138;2022-10-16T08:16:52;0.88;;;0.30;;
44824;SDS011;30542;47.928;2.138;2022-10-16T08:21:53;1.48;;;0.43;;
44824;SDS011;30542;47.928;2.138;2022-10-16T08:26:53;1.30;;;0.50;;
44824;SDS011;30542;47.928;2.138;2022-10-16T08:31:54;1.55;;;0.40;;
44824;SDS011;30542;47.928;2.138;2022-10-16T08:36:55;0.73;;;0.45;;
44824;SDS011;30542;47.928;2.138;2022-10-16T08:52:34;1.90;;;0.57;;
44824;SDS011;30542;47.928;2.138;2022-10-16T08:57:38;2.55;;;0.93;;
44824;SDS011;30542;47.928;2.138;2022-10-16T09:02:40;4.10;;;1.87;;
44824;SDS011;30542;47.928;2.138;2022-10-16T09:07:53;4.20;;;2.00;;
44824;SDS011;30542;47.928;2.138;2022-10-16T09:13:23;3.70;;;2.10;;
44824;SDS011;30542;47.928;2.138;2022-10-16T09:18:32;2.90;;;2.17;;
44824;SDS011;30542;47.928;2.138;2022-10-16T09:23:35;5.25;;;1.63;;
44824;SDS011;30542;47.928;2.138;2022-10-16T09:28:37;4.47;;;1.83;;
44824;SDS011;30542;47.928;2.138;2022-10-16T09:33:37;2.42;;;1.58;;
44824;SDS011;30542;47.928;2.138;2022-10-16T09:38:40;4.82;;;2.00;;
44824;SDS011;30542;47.928;2.138;2022-10-16T09:43:52;5.23;;;2.17;;
44824;SDS011;30542;47.928;2.138;2022-10-16T09:48:58;3.70;;;1.88;;
44824;SDS011;30542;47.928;2.138;2022-10-16T09:54:00;3.42;;;1.35;;
44824;SDS011;30542;47.928;2.138;2022-10-16T09:59:22;1.85;;;1.55;;
44824;SDS011;30542;47.928;2.138;2022-10-16T10:04:36;2.55;;;1.30;;
44824;SDS011;30542;47.928;2.138;2022-10-16T10:09:42;9.07;;;3.30;;
44824;SDS011;30542;47.928;2.138;2022-10-16T10:14:46;5.22;;;2.05;;
44824;SDS011;30542;47.928;2.138;2022-10-16T10:19:53;8.55;;;2.40;;
44824;SDS011;30542;47.928;2.138;2022-10-16T10:35:28;4.97;;;1.40;;
44824;SDS011;30542;47.928;2.138;2022-10-16T10:40:51;4.85;;;1.60;;
44824;SDS011;30542;47.928;2.138;2022-10-16T10:46:02;4.20;;;1.50;;
44824;SDS011;30542;47.928;2.138;2022-10-16T10:56:50;2.40;;;1.33;;
44824;SDS011;30542;47.928;2.138;2022-10-16T11:02:03;2.85;;;1.05;;
44824;SDS011;30542;47.928;2.138;2022-10-16T11:07:05;4.18;;;1.15;;
44824;SDS011;30542;47.928;2.138;2022-10-16T11:12:36;4.55;;;1.38;;
44824;SDS011;30542;47.928;2.138;2022-10-16T11:17:39;3.63;;;1.30;;
44824;SDS011;30542;47.928;2.138;2022-10-16T11:22:50;3.00;;;1.25;;
44824;SDS011;30542;47.928;2.138;2022-10-16T11:28:02;2.30;;;1.13;;
44824;SDS011;30542;47.928;2.138;2022-10-16T11:33:15;3.75;;;1.67;;
44824;SDS011;30542;47.928;2.138;2022-10-16T11:49:27;2.80;;;1.00;;
44824;SDS011;30542;47.928;2.138;2022-10-16T11:59:58;4.45;;;1.35;;
44824;SDS011;30542;47.928;2.138;2022-10-16T12:10:26;2.28;;;1.00;;
44824;SDS011;30542;47.928;2.138;2022-10-16T12:15:32;2.30;;;1.35;;
44824;SDS011;30542;47.928;2.138;2022-10-16T12:20:33;3.28;;;0.95;;
44824;SDS011;30542;47.928;2.138;2022-10-16T12:25:37;2.67;;;0.90;;
44824;SDS011;30542;47.928;2.138;2022-10-16T12:30:53;2.22;;;0.90;;
44824;SDS011;30542;47.928;2.138;2022-10-16T12:35:54;1.75;;;0.88;;
44824;SDS011;30542;47.928;2.138;2022-10-16T12:41:02;1.45;;;1.02;;
44824;SDS011;30542;47.928;2.138;2022-10-16T12:51:22;3.00;;;0.90;;
44824;SDS011;30542;47.928;2.138;2022-10-16T12:56:35;1.80;;;1.00;;
44824;SDS011;30542;47.928;2.138;2022-10-16T13:01:56;1.65;;;1.02;;
44824;SDS011;30542;47.928;2.138;2022-10-16T13:23:13;1.52;;;1.13;;
44824;SDS011;30542;47.928;2.138;2022-10-16T13:28:22;2.30;;;1.00;;
44824;SDS011;30542;47.928;2.138;2022-10-16T13:33:32;2.30;;;1.25;;
44824;SDS011;30542;47.928;2.138;2022-10-16T13:38:36;1.52;;;1.40;;
44824;SDS011;30542;47.928;2.138;2022-10-16T13:48:43;1.52;;;1.25;;
44824;SDS011;30542;47.928;2.138;2022-10-16T13:53:44;2.63;;;0.98;;
44824;SDS011;30542;47.928;2.138;2022-10-16T13:58:45;1.45;;;1.33;;
44824;SDS011;30542;47.928;2.138;2022-10-16T14:03:47;2.03;;;1.80;;
44824;SDS011;30542;47.928;2.138;2022-10-16T14:08:49;2.30;;;1.45;;
44824;SDS011;30542;47.928;2.138;2022-10-16T14:14:01;2.03;;;1.33;;
44824;SDS011;30542;47.928;2.138;2022-10-16T14:19:03;2.30;;;1.30;;
44824;SDS011;30542;47.928;2.138;2022-10-16T14:24:10;1.65;;;1.45;;
44824;SDS011;30542;47.928;2.138;2022-10-16T14:29:17;2.15;;;1.35;;
44824;SDS011;30542;47.928;2.138;2022-10-16T14:34:32;2.05;;;1.25;;
44824;SDS011;30542;47.928;2.138;2022-10-16T14:39:34;2.47;;;1.90;;
44824;SDS011;30542;47.928;2.138;2022-10-16T14:44:35;3.45;;;1.92;;
44824;SDS011;30542;47.928;2.138;2022-10-16T14:49:36;3.47;;;2.28;;
44824;SDS011;30542;47.928;2.138;2022-10-16T14:54:37;2.67;;;2.27;;
44824;SDS011;30542;47.928;2.138;2022-10-16T14:59:38;3.53;;;2.83;;
44824;SDS011;30542;47.928;2.138;2022-10-16T15:04:44;4.45;;;3.10;;
44824;SDS011;30542;47.928;2.138;2022-10-16T15:09:44;4.17;;;3.27;;
44824;SDS011;30542;47.928;2.138;2022-10-16T15:14:44;4.18;;;3.70;;
44824;SDS011;30542;47.928;2.138;2022-10-16T15:19:45;5.60;;;4.10;;
44824;SDS011;30542;47.928;2.138;2022-10-16T15:24:45;4.07;;;3.43;;
44824;SDS011;30542;47.928;2.138;2022-10-16T15:29:46;4.40;;;3.80;;
44824;SDS011;30542;47.928;2.138;2022-10-16T15:34:46;3.97;;;3.67;;
44824;SDS011;30542;47.928;2.138;2022-10-16T15:39:46;3.87;;;3.50;;
44824;SDS011;30542;47.928;2.138;2022-10-16T15:44:47;3.90;;;3.53;;
44824;SDS011;30542;47.928;2.138;2022-10-16T15:49:47;3.60;;;3.35;;
44824;SDS011;30542;47.928;2.138;2022-10-16T15:54:48;3.40;;;3.20;;
44824;SDS011;30542;47.928;2.138;2022-10-16T15:59:48;3.20;;;3.00;;
44824;SDS011;30542;47.928;2.138;2022-10-16T16:04:49;3.77;;;3.50;;
44824;SDS011;30542;47.928;2.138;2022-10-16T16:09:49;3.30;;;3.00;;
44824;SDS011;30542;47.928;2.138;2022-10-16T16:14:49;3.30;;;3.00;;
44824;SDS011;30542;47.928;2.138;2022-10-16T16:19:51;3.30;;;3.00;;
44824;SDS011;30542;47.928;2.138;2022-10-16T16:24:51;3.22;;;2.95;;
44824;SDS011;30542;47.928;2.138;2022-10-16T16:29:52;3.13;;;2.87;;
44824;SDS011;30542;47.928;2.138;2022-10-16T16:34:53;3.38;;;2.90;;
44824;SDS011;30542;47.928;2.138;2022-10-16T16:39:53;4.20;;;3.20;;
44824;SDS011;30542;47.928;2.138;2022-10-16T16:44:55;9.35;;;3.72;;
44824;SDS011;30542;47.928;2.138;2022-10-16T16:49:56;6.50;;;3.40;;
44824;SDS011;30542;47.928;2.138;2022-10-16T16:54:56;4.53;;;2.70;;
44824;SDS011;30542;47.928;2.138;2022-10-16T16:59:57;5.53;;;2.53;;
44824;SDS011;30542;47.928;2.138;2022-10-16T17:04:57;5.03;;;3.17;;
44824;SDS011;30542;47.928;2.138;2022-10-16T17:09:58;6.90;;;3.47;;
44824;SDS011;30542;47.928;2.138;2022-10-16T17:14:58;3.97;;;2.20;;
44824;SDS011;30542;47.928;2.138;2022-10-16T17:19:58;2.63;;;2.40;;
44824;SDS011;30542;47.928;2.138;2022-10-16T17:24:59;3.85;;;2.88;;
44824;SDS011;30542;47.928;2.138;2022-10-16T17:30:03;3.35;;;2.83;;
44824;SDS011;30542;47.928;2.138;2022-10-16T17:35:04;3.40;;;2.40;;
44824;SDS011;30542;47.928;2.138;2022-10-16T17:40:05;3.17;;;2.30;;
44824;SDS011;30542;47.928;2.138;2022-10-16T17:45:06;2.70;;;2.30;;
44824;SDS011;30542;47.928;2.138;2022-10-16T17:50:07;3.00;;;2.70;;
44824;SDS011;30542;47.928;2.138;2022-10-16T17:55:07;4.30;;;2.20;;
44824;SDS011;30542;47.928;2.138;2022-10-16T18:00:08;2.45;;;2.25;;
44824;SDS011;30542;47.928;2.138;2022-10-16T18:05:09;5.82;;;2.22;;
44824;SDS011;30542;47.928;2.138;2022-10-16T18:10:10;4.15;;;2.53;;
44824;SDS011;30542;47.928;2.138;2022-10-16T18:15:11;2.45;;;1.92;;
44824;SDS011;30542;47.928;2.138;2022-10-16T18:20:11;2.78;;;2.10;;
44824;SDS011;30542;47.928;2.138;2022-10-16T18:25:12;3.20;;;2.08;;
44824;SDS011;30542;47.928;2.138;2022-10-16T18:30:12;4.87;;;2.37;;
44824;SDS011;30542;47.928;2.138;2022-10-16T18:35:13;3.58;;;2.38;;
44824;SDS011;30542;47.928;2.138;2022-10-16T18:40:13;2.40;;;2.20;;
44824;SDS011;30542;47.928;2.138;2022-10-16T18:45:13;4.80;;;2.10;;
44824;SDS011;30542;47.928;2.138;2022-10-16T18:50:14;2.75;;;2.13;;
44824;SDS011;30542;47.928;2.138;2022-10-16T18:55:15;4.82;;;1.90;;
44824;SDS011;30542;47.928;2.138;2022-10-16T19:00:16;4.30;;;2.20;;
44824;SDS011;30542;47.928;2.138;2022-10-16T19:05:16;4.07;;;2.08;;
44824;SDS011;30542;47.928;2.138;2022-10-16T19:10:16;4.13;;;1.83;;
44824;SDS011;30542;47.928;2.138;2022-10-16T19:15:17;3.30;;;2.22;;
44824;SDS011;30542;47.928;2.138;2022-10-16T19:20:18;4.37;;;1.90;;
44824;SDS011;30542;47.928;2.138;2022-10-16T19:25:18;5.45;;;2.25;;
44824;SDS011;30542;47.928;2.138;2022-10-16T19:30:22;3.47;;;2.05;;
44824;SDS011;30542;47.928;2.138;2022-10-16T19:35:22;4.07;;;2.42;;
44824;SDS011;30542;47.928;2.138;2022-10-16T19:40:25;6.93;;;2.38;;
44824;SDS011;30542;47.928;2.138;2022-10-16T19:45:26;2.90;;;1.95;;
44824;SDS011;30542;47.928;2.138;2022-10-16T19:50:26;5.53;;;2.33;;
44824;SDS011;30542;47.928;2.138;2022-10-16T19:55:29;5.40;;;2.00;;
44824;SDS011;30542;47.928;2.138;2022-10-16T20:00:30;3.85;;;2.00;;
44824;SDS011;30542;47.928;2.138;2022-10-16T20:05:31;6.03;;;2.30;;
44824;SDS011;30542;47.928;2.138;2022-10-16T20:10:31;5.27;;;2.43;;
44824;SDS011;30542;47.928;2.138;2022-10-16T20:15:31;3.83;;;2.30;;
44824;SDS011;30542;47.928;2.138;2022-10-16T20:20:35;4.20;;;2.43;;
44824;SDS011;30542;47.928;2.138;2022-10-16T20:25:37;5.22;;;2.60;;
44824;SDS011;30542;47.928;2.138;2022-10-16T20:30:40;4.43;;;2.38;;
44824;SDS011;30542;47.928;2.138;2022-10-16T20:35:43;6.40;;;2.55;;
44824;SDS011;30542;47.928;2.138;2022-10-16T20:40:45;4.10;;;2.30;;
44824;SDS011;30542;47.928;2.138;2022-10-16T20:45:47;4.40;;;2.67;;
44824;SDS011;30542;47.928;2.138;2022-10-16T20:51:10;4.00;;;2.28;;
44824;SDS011;30542;47.928;2.138;2022-10-16T20:56:16;3.55;;;1.85;;
44824;SDS011;30542;47.928;2.138;2022-10-16T21:01:17;4.03;;;1.90;;
44824;SDS011;30542;47.928;2.138;2022-10-16T21:06:22;4.95;;;2.25;;
44824;SDS011;30542;47.928;2.138;2022-10-16T21:11:25;3.13;;;2.03;;
44824;SDS011;30542;47.928;2.138;2022-10-16T21:16:26;3.30;;;2.38;;
44824;SDS011;30542;47.928;2.138;2022-10-16T21:21:29;3.70;;;1.92;;
44824;SDS011;30542;47.928;2.138;2022-10-16T21:26:32;3.90;;;2.42;;
44824;SDS011;30542;47.928;2.138;2022-10-16T21:31:32;3.47;;;1.75;;
44824;SDS011;30542;47.928;2.138;2022-10-16T21:36:34;2.72;;;2.03;;
44824;SDS011;30542;47.928;2.138;2022-10-16T21:41:37;2.95;;;2.00;;
44824;SDS011;30542;47.928;2.138;2022-10-16T21:46:39;3.75;;;2.05;;
44824;SDS011;30542;47.928;2.138;2022-10-16T21:51:42;3.45;;;1.95;;
44824;SDS011;30542;47.928;2.138;2022-10-16T21:56:44;4.40;;;2.40;;
44824;SDS011;30542;47.928;2.138;2022-10-16T22:01:45;5.57;;;1.80;;
44824;SDS011;30542;47.928;2.138;2022-10-16T22:06:45;4.38;;;2.00;;
44824;SDS011;30542;47.928;2.138;2022-10-16T22:11:46;2.85;;;1.70;;
44824;SDS011;30542;47.928;2.138;2022-10-16T22:16:47;3.35;;;2.22;;
44824;SDS011;30542;47.928;2.138;2022-10-16T22:21:49;3.45;;;1.90;;
44824;SDS011;30542;47.928;2.138;2022-10-16T22:26:54;5.75;;;1.80;;
44824;SDS011;30542;47.928;2.138;2022-10-16T22:31:55;3.78;;;2.20;;
44824;SDS011;30542;47.928;2.138;2022-10-16T22:36:55;5.73;;;1.97;;
44824;SDS011;30542;47.928;2.138;2022-10-16T22:41:55;4.37;;;1.70;;
44824;SDS011;30542;47.928;2.138;2022-10-16T22:46:56;1.70;;;1.60;;
44824;SDS011;30542;47.928;2.138;2022-10-16T22:51:57;3.30;;;1.80;;
44824;SDS011;30542;47.928;2.138;2022-10-16T22:56:57;3.20;;;2.03;;
44824;SDS011;30542;47.928;2.138;2022-10-16T23:01:57;3.60;;;1.70;;
44824;SDS011;30542;47.928;2.138;2022-10-16T23:06:58;2.03;;;1.73;;
44824;SDS011;30542;47.928;2.138;2022-10-16T23:11:59;1.65;;;1.55;;
44824;SDS011;30542;47.928;2.138;2022-10-16T23:16:59;3.87;;;1.70;;
44824;SDS011;30542;47.928;2.138;2022-10-16T23:21:59;2.83;;;1.97;;
44824;SDS011;30542;47.928;2.138;2022-10-16T23:27:00;2.07;;;1.70;;
44824;SDS011;30542;47.928;2.138;2022-10-16T23:32:00;2.33;;;1.50;;
44824;SDS011;30542;47.928;2.138;2022-10-16T23:37:01;2.03;;;1.60;;
44824;SDS011;30542;47.928;2.138;2022-10-16T23:42:02;4.25;;;1.98;;
44824;SDS011;30542;47.928;2.138;2022-10-16T23:47:03;2.15;;;1.95;;
44824;SDS011;30542;47.928;2.138;2022-10-16T23:52:03;1.73;;;1.63;;
44824;SDS011;30542;47.928;2.138;2022-10-16T23:57:04;1.88;;;1.65;;
